sensor_id;sensor_type;location;lat;lon;timestamp;temperature;humidity
42965;DHT22;28604;51.204;22.552;2023-01-04T00:00:35;3.20;87.30
42965;DHT22;28604;51.204;22.552;2023-01-04T00:03:21;3.20;87.50
42965;DHT22;28604;51.204;22.552;2023-01-04T00:05:46;3.20;87.30
42965;DHT22;28604;51.204;22.552;2023-01-04T00:08:12;3.10;86.90
42965;DHT22;28604;51.204;22.552;2023-01-04T00:10:38;3.10;87.30
42965;DHT22;28604;51.204;22.552;2023-01-04T00:13:04;3.10;87.20
42965;DHT22;28604;51.204;22.552;2023-01-04T00:15:30;3.00;87.80
42965;DHT22;28604;51.204;22.552;2023-01-04T00:17:56;3.00;87.60
42965;DHT22;28604;51.204;22.552;2023-01-04T00:20:22;3.00;88.20
42965;DHT22;28604;51.204;22.552;2023-01-04T00:22:48;3.00;87.70
42965;DHT22;28604;51.204;22.552;2023-01-04T00:25:14;3.00;87.00
42965;DHT22;28604;51.204;22.552;2023-01-04T00:27:40;3.00;87.10
42965;DHT22;28604;51.204;22.552;2023-01-04T00:30:07;2.90;87.90
42965;DHT22;28604;51.204;22.552;2023-01-04T00:32:33;2.90;87.50
42965;DHT22;28604;51.204;22.552;2023-01-04T00:34:59;2.90;87.50
42965;DHT22;28604;51.204;22.552;2023-01-04T00:37:25;2.90;87.70
42965;DHT22;28604;51.204;22.552;2023-01-04T00:39:51;2.80;88.00
42965;DHT22;28604;51.204;22.552;2023-01-04T00:42:17;2.80;89.20
42965;DHT22;28604;51.204;22.552;2023-01-04T00:44:43;2.80;88.70
42965;DHT22;28604;51.204;22.552;2023-01-04T00:47:09;2.70;88.50
42965;DHT22;28604;51.204;22.552;2023-01-04T00:49:35;2.70;89.00
42965;DHT22;28604;51.204;22.552;2023-01-04T00:52:01;2.70;88.40
42965;DHT22;28604;51.204;22.552;2023-01-04T00:54:27;2.70;88.00
42965;DHT22;28604;51.204;22.552;2023-01-04T00:56:53;2.70;88.10
42965;DHT22;28604;51.204;22.552;2023-01-04T00:59:20;2.70;88.40
42965;DHT22;28604;51.204;22.552;2023-01-04T01:01:47;2.60;87.50
42965;DHT22;28604;51.204;22.552;2023-01-04T01:04:15;2.60;88.10
42965;DHT22;28604;51.204;22.552;2023-01-04T01:06:42;2.70;87.50
42965;DHT22;28604;51.204;22.552;2023-01-04T01:09:08;2.60;87.90
42965;DHT22;28604;51.204;22.552;2023-01-04T01:11:35;2.60;88.80
42965;DHT22;28604;51.204;22.552;2023-01-04T01:14:02;2.60;88.30
42965;DHT22;28604;51.204;22.552;2023-01-04T01:16:28;2.50;88.70
42965;DHT22;28604;51.204;22.552;2023-01-04T01:18:54;2.50;88.30
42965;DHT22;28604;51.204;22.552;2023-01-04T01:21:23;2.60;89.00
42965;DHT22;28604;51.204;22.552;2023-01-04T01:23:49;2.50;88.90
42965;DHT22;28604;51.204;22.552;2023-01-04T01:26:18;2.50;89.70
42965;DHT22;28604;51.204;22.552;2023-01-04T01:28:44;2.50;89.60
42965;DHT22;28604;51.204;22.552;2023-01-04T01:31:12;2.50;89.40
42965;DHT22;28604;51.204;22.552;2023-01-04T01:33:40;2.40;89.60
42965;DHT22;28604;51.204;22.552;2023-01-04T01:36:08;2.40;89.50
42965;DHT22;28604;51.204;22.552;2023-01-04T01:38:35;2.40;89.80
42965;DHT22;28604;51.204;22.552;2023-01-04T01:41:01;2.40;89.60
42965;DHT22;28604;51.204;22.552;2023-01-04T01:46:44;2.40;89.80
42965;DHT22;28604;51.204;22.552;2023-01-04T01:49:34;2.30;89.80
42965;DHT22;28604;51.204;22.552;2023-01-04T01:52:04;2.30;90.10
42965;DHT22;28604;51.204;22.552;2023-01-04T01:54:38;2.40;89.80
42965;DHT22;28604;51.204;22.552;2023-01-04T01:57:08;2.30;90.10
42965;DHT22;28604;51.204;22.552;2023-01-04T01:59:37;2.30;90.20
42965;DHT22;28604;51.204;22.552;2023-01-04T02:02:05;2.30;90.10
42965;DHT22;28604;51.204;22.552;2023-01-04T02:04:31;2.30;90.00
42965;DHT22;28604;51.204;22.552;2023-01-04T02:06:58;2.30;90.20
42965;DHT22;28604;51.204;22.552;2023-01-04T02:09:25;2.30;90.40
42965;DHT22;28604;51.204;22.552;2023-01-04T02:11:51;2.30;90.30
42965;DHT22;28604;51.204;22.552;2023-01-04T02:14:18;2.20;90.40
42965;DHT22;28604;51.204;22.552;2023-01-04T02:17:03;2.20;90.30
42965;DHT22;28604;51.204;22.552;2023-01-04T02:25:31;2.10;90.60
42965;DHT22;28604;51.204;22.552;2023-01-04T02:27:43;2.10;90.40
42965;DHT22;28604;51.204;22.552;2023-01-04T02:38:24;2.00;90.60
42965;DHT22;28604;51.204;22.552;2023-01-04T02:40:59;2.00;90.50
42965;DHT22;28604;51.204;22.552;2023-01-04T02:43:40;2.00;90.40
42965;DHT22;28604;51.204;22.552;2023-01-04T02:46:32;1.90;90.40
42965;DHT22;28604;51.204;22.552;2023-01-04T02:49:01;1.90;90.30
42965;DHT22;28604;51.204;22.552;2023-01-04T02:51:46;2.00;89.50
42965;DHT22;28604;51.204;22.552;2023-01-04T02:54:21;2.00;89.20
42965;DHT22;28604;51.204;22.552;2023-01-04T02:57:09;2.00;89.80
42965;DHT22;28604;51.204;22.552;2023-01-04T03:05:58;1.90;89.50
42965;DHT22;28604;51.204;22.552;2023-01-04T03:08:46;1.90;90.20
42965;DHT22;28604;51.204;22.552;2023-01-04T03:11:15;1.90;90.40
42965;DHT22;28604;51.204;22.552;2023-01-04T03:14:19;1.90;90.50
42965;DHT22;28604;51.204;22.552;2023-01-04T03:16:47;1.90;90.30
42965;DHT22;28604;51.204;22.552;2023-01-04T03:19:15;1.90;89.80
42965;DHT22;28604;51.204;22.552;2023-01-04T03:22:03;1.90;89.10
42965;DHT22;28604;51.204;22.552;2023-01-04T03:24:31;1.80;89.30
42965;DHT22;28604;51.204;22.552;2023-01-04T03:27:18;1.80;89.00
42965;DHT22;28604;51.204;22.552;2023-01-04T03:30:06;1.80;89.50
42965;DHT22;28604;51.204;22.552;2023-01-04T03:33:00;1.80;89.10
42965;DHT22;28604;51.204;22.552;2023-01-04T03:36:20;1.80;88.10
42965;DHT22;28604;51.204;22.552;2023-01-04T03:39:00;1.80;88.40
42965;DHT22;28604;51.204;22.552;2023-01-04T03:41:50;1.70;88.80
42965;DHT22;28604;51.204;22.552;2023-01-04T03:44:43;1.70;87.70
42965;DHT22;28604;51.204;22.552;2023-01-04T03:47:39;1.70;87.60
42965;DHT22;28604;51.204;22.552;2023-01-04T03:50:28;1.60;87.50
42965;DHT22;28604;51.204;22.552;2023-01-04T03:52:55;1.70;86.90
42965;DHT22;28604;51.204;22.552;2023-01-04T03:55:26;1.60;86.80
42965;DHT22;28604;51.204;22.552;2023-01-04T03:57:54;1.60;86.40
42965;DHT22;28604;51.204;22.552;2023-01-04T04:00:21;1.50;86.40
42965;DHT22;28604;51.204;22.552;2023-01-04T04:02:49;1.50;86.00
42965;DHT22;28604;51.204;22.552;2023-01-04T04:05:20;1.50;86.50
42965;DHT22;28604;51.204;22.552;2023-01-04T04:08:05;1.50;87.50
42965;DHT22;28604;51.204;22.552;2023-01-04T04:10:50;1.50;86.90
42965;DHT22;28604;51.204;22.552;2023-01-04T04:13:16;1.50;87.00
42965;DHT22;28604;51.204;22.552;2023-01-04T04:15:43;1.40;86.80
42965;DHT22;28604;51.204;22.552;2023-01-04T04:18:09;1.40;87.00
42965;DHT22;28604;51.204;22.552;2023-01-04T04:23:09;1.40;87.20
42965;DHT22;28604;51.204;22.552;2023-01-04T04:25:35;1.40;87.10
42965;DHT22;28604;51.204;22.552;2023-01-04T04:28:01;1.30;89.10
42965;DHT22;28604;51.204;22.552;2023-01-04T04:30:27;1.30;87.70
42965;DHT22;28604;51.204;22.552;2023-01-04T04:32:53;1.30;89.00
42965;DHT22;28604;51.204;22.552;2023-01-04T04:35:19;1.30;87.50
42965;DHT22;28604;51.204;22.552;2023-01-04T04:37:45;1.30;87.40
42965;DHT22;28604;51.204;22.552;2023-01-04T04:40:11;1.30;87.90
42965;DHT22;28604;51.204;22.552;2023-01-04T04:42:57;1.20;87.60
42965;DHT22;28604;51.204;22.552;2023-01-04T04:45:23;1.20;87.30
42965;DHT22;28604;51.204;22.552;2023-01-04T04:47:49;1.20;88.20
42965;DHT22;28604;51.204;22.552;2023-01-04T04:50:15;1.20;89.60
42965;DHT22;28604;51.204;22.552;2023-01-04T04:52:41;1.20;89.40
42965;DHT22;28604;51.204;22.552;2023-01-04T04:55:07;1.20;88.00
42965;DHT22;28604;51.204;22.552;2023-01-04T04:57:33;1.20;88.60
42965;DHT22;28604;51.204;22.552;2023-01-04T04:59:59;1.20;89.50
42965;DHT22;28604;51.204;22.552;2023-01-04T05:02:24;1.20;89.00
42965;DHT22;28604;51.204;22.552;2023-01-04T05:04:50;1.20;89.00
42965;DHT22;28604;51.204;22.552;2023-01-04T05:07:16;1.20;89.20
42965;DHT22;28604;51.204;22.552;2023-01-04T05:09:42;1.10;90.10
42965;DHT22;28604;51.204;22.552;2023-01-04T05:12:11;1.20;90.30
42965;DHT22;28604;51.204;22.552;2023-01-04T05:14:56;1.20;90.00
42965;DHT22;28604;51.204;22.552;2023-01-04T05:17:21;1.10;90.10
42965;DHT22;28604;51.204;22.552;2023-01-04T05:19:47;1.10;89.80
42965;DHT22;28604;51.204;22.552;2023-01-04T05:22:13;1.20;90.00
42965;DHT22;28604;51.204;22.552;2023-01-04T05:24:39;1.10;89.90
42965;DHT22;28604;51.204;22.552;2023-01-04T05:27:05;1.10;90.40
42965;DHT22;28604;51.204;22.552;2023-01-04T05:29:31;1.20;90.10
42965;DHT22;28604;51.204;22.552;2023-01-04T05:32:15;1.10;89.80
42965;DHT22;28604;51.204;22.552;2023-01-04T05:34:41;1.20;88.70
42965;DHT22;28604;51.204;22.552;2023-01-04T05:37:07;1.10;88.50
42965;DHT22;28604;51.204;22.552;2023-01-04T05:39:33;1.10;89.20
42965;DHT22;28604;51.204;22.552;2023-01-04T05:41:59;1.10;89.00
42965;DHT22;28604;51.204;22.552;2023-01-04T05:44:44;1.10;88.20
42965;DHT22;28604;51.204;22.552;2023-01-04T05:47:10;1.10;88.90
42965;DHT22;28604;51.204;22.552;2023-01-04T05:49:36;1.10;87.90
42965;DHT22;28604;51.204;22.552;2023-01-04T05:52:02;1.10;88.40
42965;DHT22;28604;51.204;22.552;2023-01-04T05:54:28;1.10;88.40
42965;DHT22;28604;51.204;22.552;2023-01-04T05:56:53;1.10;88.50
42965;DHT22;28604;51.204;22.552;2023-01-04T05:59:20;1.00;87.80
42965;DHT22;28604;51.204;22.552;2023-01-04T06:01:45;1.00;88.80
42965;DHT22;28604;51.204;22.552;2023-01-04T06:04:12;1.00;88.50
42965;DHT22;28604;51.204;22.552;2023-01-04T06:06:37;1.00;88.30
42965;DHT22;28604;51.204;22.552;2023-01-04T06:09:03;1.00;87.80
42965;DHT22;28604;51.204;22.552;2023-01-04T06:11:29;1.00;87.30
42965;DHT22;28604;51.204;22.552;2023-01-04T06:13:55;1.00;88.90
42965;DHT22;28604;51.204;22.552;2023-01-04T06:16:21;1.00;88.10
42965;DHT22;28604;51.204;22.552;2023-01-04T06:18:47;1.00;87.50
42965;DHT22;28604;51.204;22.552;2023-01-04T06:21:13;0.90;88.70
42965;DHT22;28604;51.204;22.552;2023-01-04T06:23:39;0.90;87.40
42965;DHT22;28604;51.204;22.552;2023-01-04T06:26:05;0.90;88.40
42965;DHT22;28604;51.204;22.552;2023-01-04T06:28:31;0.90;87.70
42965;DHT22;28604;51.204;22.552;2023-01-04T06:30:57;0.90;87.00
42965;DHT22;28604;51.204;22.552;2023-01-04T06:33:23;0.90;88.30
42965;DHT22;28604;51.204;22.552;2023-01-04T06:35:55;0.90;88.50
42965;DHT22;28604;51.204;22.552;2023-01-04T06:38:22;0.90;88.70
42965;DHT22;28604;51.204;22.552;2023-01-04T06:40:47;0.90;88.70
42965;DHT22;28604;51.204;22.552;2023-01-04T06:43:13;0.90;87.90
42965;DHT22;28604;51.204;22.552;2023-01-04T06:45:40;1.00;88.50
42965;DHT22;28604;51.204;22.552;2023-01-04T06:48:06;1.00;88.70
42965;DHT22;28604;51.204;22.552;2023-01-04T06:50:32;1.00;89.00
42965;DHT22;28604;51.204;22.552;2023-01-04T06:52:58;1.00;88.10
42965;DHT22;28604;51.204;22.552;2023-01-04T06:55:24;1.10;88.20
42965;DHT22;28604;51.204;22.552;2023-01-04T06:57:50;1.10;88.10
42965;DHT22;28604;51.204;22.552;2023-01-04T07:00:16;1.20;88.20
42965;DHT22;28604;51.204;22.552;2023-01-04T07:02:43;1.20;88.50
42965;DHT22;28604;51.204;22.552;2023-01-04T07:05:09;1.20;88.50
42965;DHT22;28604;51.204;22.552;2023-01-04T07:07:35;1.30;88.10
42965;DHT22;28604;51.204;22.552;2023-01-04T07:10:01;1.30;88.20
42965;DHT22;28604;51.204;22.552;2023-01-04T07:12:27;1.30;88.80
42965;DHT22;28604;51.204;22.552;2023-01-04T07:14:52;1.30;88.10
42965;DHT22;28604;51.204;22.552;2023-01-04T07:17:19;1.40;89.20
42965;DHT22;28604;51.204;22.552;2023-01-04T07:19:44;1.40;88.10
42965;DHT22;28604;51.204;22.552;2023-01-04T07:22:11;1.40;88.50
42965;DHT22;28604;51.204;22.552;2023-01-04T07:24:37;1.40;88.80
42965;DHT22;28604;51.204;22.552;2023-01-04T07:27:03;1.50;89.50
42965;DHT22;28604;51.204;22.552;2023-01-04T07:29:28;1.50;88.00
42965;DHT22;28604;51.204;22.552;2023-01-04T07:31:55;1.50;89.10
42965;DHT22;28604;51.204;22.552;2023-01-04T07:34:24;1.60;88.90
42965;DHT22;28604;51.204;22.552;2023-01-04T07:36:50;1.60;88.30
42965;DHT22;28604;51.204;22.552;2023-01-04T07:39:17;1.70;88.50
42965;DHT22;28604;51.204;22.552;2023-01-04T07:41:44;1.80;87.70
42965;DHT22;28604;51.204;22.552;2023-01-04T07:44:11;1.80;89.70
42965;DHT22;28604;51.204;22.552;2023-01-04T07:46:38;1.80;89.10
42965;DHT22;28604;51.204;22.552;2023-01-04T07:49:04;1.90;89.70
42965;DHT22;28604;51.204;22.552;2023-01-04T07:51:31;1.90;89.30
42965;DHT22;28604;51.204;22.552;2023-01-04T07:53:58;2.00;88.70
42965;DHT22;28604;51.204;22.552;2023-01-04T07:56:24;2.00;88.70
42965;DHT22;28604;51.204;22.552;2023-01-04T07:58:50;2.10;89.50
42965;DHT22;28604;51.204;22.552;2023-01-04T08:01:18;2.10;90.20
42965;DHT22;28604;51.204;22.552;2023-01-04T08:03:45;2.20;88.90
42965;DHT22;28604;51.204;22.552;2023-01-04T08:06:12;2.30;89.70
42965;DHT22;28604;51.204;22.552;2023-01-04T08:08:39;2.30;88.80
42965;DHT22;28604;51.204;22.552;2023-01-04T08:11:07;2.40;89.10
42965;DHT22;28604;51.204;22.552;2023-01-04T08:13:33;2.40;89.60
42965;DHT22;28604;51.204;22.552;2023-01-04T08:16:00;2.60;89.40
42965;DHT22;28604;51.204;22.552;2023-01-04T08:18:26;2.60;89.60
42965;DHT22;28604;51.204;22.552;2023-01-04T08:21:06;2.70;89.30
42965;DHT22;28604;51.204;22.552;2023-01-04T08:23:33;2.80;89.20
42965;DHT22;28604;51.204;22.552;2023-01-04T08:26:03;2.90;89.40
42965;DHT22;28604;51.204;22.552;2023-01-04T08:28:30;2.90;90.20
42965;DHT22;28604;51.204;22.552;2023-01-04T08:30:57;3.00;89.80
42965;DHT22;28604;51.204;22.552;2023-01-04T08:33:23;3.10;90.30
42965;DHT22;28604;51.204;22.552;2023-01-04T08:35:49;3.20;90.60
42965;DHT22;28604;51.204;22.552;2023-01-04T08:38:15;3.30;90.40
42965;DHT22;28604;51.204;22.552;2023-01-04T08:40:41;3.40;89.60
42965;DHT22;28604;51.204;22.552;2023-01-04T08:43:07;3.50;88.90
42965;DHT22;28604;51.204;22.552;2023-01-04T08:45:33;3.60;88.80
42965;DHT22;28604;51.204;22.552;2023-01-04T08:47:59;3.60;89.00
42965;DHT22;28604;51.204;22.552;2023-01-04T08:50:25;3.70;88.80
42965;DHT22;28604;51.204;22.552;2023-01-04T08:52:51;3.80;89.00
42965;DHT22;28604;51.204;22.552;2023-01-04T08:55:17;4.00;89.70
42965;DHT22;28604;51.204;22.552;2023-01-04T08:57:43;4.30;90.30
42965;DHT22;28604;51.204;22.552;2023-01-04T09:00:10;4.60;90.10
42965;DHT22;28604;51.204;22.552;2023-01-04T09:02:36;5.00;90.10
42965;DHT22;28604;51.204;22.552;2023-01-04T09:05:02;5.40;90.00
42965;DHT22;28604;51.204;22.552;2023-01-04T09:07:29;5.80;88.30
42965;DHT22;28604;51.204;22.552;2023-01-04T09:09:55;6.10;89.60
42965;DHT22;28604;51.204;22.552;2023-01-04T09:12:22;6.50;88.80
42965;DHT22;28604;51.204;22.552;2023-01-04T09:14:48;6.90;85.50
42965;DHT22;28604;51.204;22.552;2023-01-04T09:17:14;7.30;85.70
42965;DHT22;28604;51.204;22.552;2023-01-04T09:19:40;7.60;84.60
42965;DHT22;28604;51.204;22.552;2023-01-04T09:22:06;7.90;82.70
42965;DHT22;28604;51.204;22.552;2023-01-04T09:24:33;8.20;82.10
42965;DHT22;28604;51.204;22.552;2023-01-04T09:26:58;8.60;79.40
42965;DHT22;28604;51.204;22.552;2023-01-04T09:29:25;8.90;83.80
42965;DHT22;28604;51.204;22.552;2023-01-04T09:31:53;9.20;84.00
42965;DHT22;28604;51.204;22.552;2023-01-04T09:34:19;9.40;78.60
42965;DHT22;28604;51.204;22.552;2023-01-04T09:36:46;9.60;76.30
42965;DHT22;28604;51.204;22.552;2023-01-04T09:39:13;9.90;76.90
42965;DHT22;28604;51.204;22.552;2023-01-04T09:42:02;10.10;78.20
42965;DHT22;28604;51.204;22.552;2023-01-04T09:44:51;10.40;77.80
42965;DHT22;28604;51.204;22.552;2023-01-04T09:47:40;10.60;76.20
42965;DHT22;28604;51.204;22.552;2023-01-04T10:21:55;10.60;70.50
42965;DHT22;28604;51.204;22.552;2023-01-04T10:27:22;10.70;71.30
42965;DHT22;28604;51.204;22.552;2023-01-04T10:32:43;10.70;71.90
42965;DHT22;28604;51.204;22.552;2023-01-04T10:35:21;10.70;71.60
42965;DHT22;28604;51.204;22.552;2023-01-04T10:37:50;10.50;72.30
42965;DHT22;28604;51.204;22.552;2023-01-04T10:40:17;10.40;71.70
42965;DHT22;28604;51.204;22.552;2023-01-04T10:45:44;10.40;71.50
42965;DHT22;28604;51.204;22.552;2023-01-04T10:51:01;10.40;75.80
42965;DHT22;28604;51.204;22.552;2023-01-04T10:53:41;10.30;71.30
42965;DHT22;28604;51.204;22.552;2023-01-04T10:56:19;10.40;71.20
42965;DHT22;28604;51.204;22.552;2023-01-04T10:58:52;10.20;70.80
42965;DHT22;28604;51.204;22.552;2023-01-04T11:01:27;10.20;72.20
42965;DHT22;28604;51.204;22.552;2023-01-04T11:04:15;10.30;71.00
42965;DHT22;28604;51.204;22.552;2023-01-04T11:06:52;10.30;71.60
42965;DHT22;28604;51.204;22.552;2023-01-04T11:09:23;10.30;71.40
42965;DHT22;28604;51.204;22.552;2023-01-04T11:11:50;10.30;73.80
42965;DHT22;28604;51.204;22.552;2023-01-04T11:14:17;10.30;73.50
42965;DHT22;28604;51.204;22.552;2023-01-04T11:16:46;10.40;71.60
42965;DHT22;28604;51.204;22.552;2023-01-04T11:19:13;10.30;71.20
42965;DHT22;28604;51.204;22.552;2023-01-04T11:22:10;10.30;72.70
42965;DHT22;28604;51.204;22.552;2023-01-04T11:24:34;10.30;72.10
42965;DHT22;28604;51.204;22.552;2023-01-04T11:27:13;10.30;71.80
42965;DHT22;28604;51.204;22.552;2023-01-04T11:32:18;10.30;71.40
42965;DHT22;28604;51.204;22.552;2023-01-04T11:34:51;10.20;72.40
42965;DHT22;28604;51.204;22.552;2023-01-04T11:42:42;10.10;73.50
42965;DHT22;28604;51.204;22.552;2023-01-04T11:45:25;10.10;73.00
42965;DHT22;28604;51.204;22.552;2023-01-04T11:47:54;10.10;73.60
42965;DHT22;28604;51.204;22.552;2023-01-04T11:50:36;10.20;73.50
42965;DHT22;28604;51.204;22.552;2023-01-04T11:53:24;10.20;74.90
42965;DHT22;28604;51.204;22.552;2023-01-04T11:55:51;10.30;74.70
42965;DHT22;28604;51.204;22.552;2023-01-04T11:58:32;10.30;72.60
42965;DHT22;28604;51.204;22.552;2023-01-04T12:00:58;10.40;72.50
42965;DHT22;28604;51.204;22.552;2023-01-04T12:03:29;10.20;73.60
42965;DHT22;28604;51.204;22.552;2023-01-04T12:05:57;10.30;72.50
42965;DHT22;28604;51.204;22.552;2023-01-04T12:08:32;10.10;73.20
42965;DHT22;28604;51.204;22.552;2023-01-04T12:11:00;10.10;73.20
42965;DHT22;28604;51.204;22.552;2023-01-04T12:13:27;10.10;72.80
42965;DHT22;28604;51.204;22.552;2023-01-04T12:16:16;10.10;73.50
42965;DHT22;28604;51.204;22.552;2023-01-04T12:18:46;10.10;72.60
42965;DHT22;28604;51.204;22.552;2023-01-04T12:21:24;9.90;74.50
42965;DHT22;28604;51.204;22.552;2023-01-04T12:23:52;9.80;74.20
42965;DHT22;28604;51.204;22.552;2023-01-04T12:26:19;9.70;74.90
42965;DHT22;28604;51.204;22.552;2023-01-04T12:28:48;9.50;74.50
42965;DHT22;28604;51.204;22.552;2023-01-04T12:33:54;9.20;74.70
42965;DHT22;28604;51.204;22.552;2023-01-04T12:47:02;9.00;75.70
42965;DHT22;28604;51.204;22.552;2023-01-04T12:49:59;8.90;76.00
42965;DHT22;28604;51.204;22.552;2023-01-04T12:54:57;8.70;75.90
42965;DHT22;28604;51.204;22.552;2023-01-04T12:57:24;8.80;77.00
42965;DHT22;28604;51.204;22.552;2023-01-04T13:00:07;8.70;76.10
42965;DHT22;28604;51.204;22.552;2023-01-04T13:02:42;8.60;76.10
42965;DHT22;28604;51.204;22.552;2023-01-04T13:07:57;8.50;76.60
42965;DHT22;28604;51.204;22.552;2023-01-04T13:10:41;8.40;77.00
42965;DHT22;28604;51.204;22.552;2023-01-04T13:13:31;8.20;77.20
42965;DHT22;28604;51.204;22.552;2023-01-04T13:16:34;8.20;77.60
42965;DHT22;28604;51.204;22.552;2023-01-04T13:19:18;8.20;77.60
42965;DHT22;28604;51.204;22.552;2023-01-04T13:21:45;8.10;78.00
42965;DHT22;28604;51.204;22.552;2023-01-04T13:24:32;8.00;78.10
42965;DHT22;28604;51.204;22.552;2023-01-04T13:27:15;7.90;78.30
42965;DHT22;28604;51.204;22.552;2023-01-04T13:29:41;7.80;78.50
42965;DHT22;28604;51.204;22.552;2023-01-04T13:32:32;7.60;79.30
42965;DHT22;28604;51.204;22.552;2023-01-04T13:35:09;7.60;79.10
42965;DHT22;28604;51.204;22.552;2023-01-04T13:37:39;7.60;79.10
42965;DHT22;28604;51.204;22.552;2023-01-04T13:40:20;7.60;78.90
42965;DHT22;28604;51.204;22.552;2023-01-04T13:43:14;7.50;78.90
42965;DHT22;28604;51.204;22.552;2023-01-04T13:48:16;7.30;79.20
42965;DHT22;28604;51.204;22.552;2023-01-04T13:50:44;7.20;79.50
42965;DHT22;28604;51.204;22.552;2023-01-04T13:53:20;7.20;79.50
42965;DHT22;28604;51.204;22.552;2023-01-04T13:55:52;7.20;79.40
42965;DHT22;28604;51.204;22.552;2023-01-04T13:58:19;7.20;79.60
42965;DHT22;28604;51.204;22.552;2023-01-04T14:05:46;6.90;81.20
42965;DHT22;28604;51.204;22.552;2023-01-04T14:08:16;6.90;80.40
42965;DHT22;28604;51.204;22.552;2023-01-04T14:10:43;6.80;81.80
42965;DHT22;28604;51.204;22.552;2023-01-04T14:13:15;6.70;81.10
42965;DHT22;28604;51.204;22.552;2023-01-04T14:15:41;6.80;80.70
42965;DHT22;28604;51.204;22.552;2023-01-04T14:18:29;6.70;80.90
42965;DHT22;28604;51.204;22.552;2023-01-04T14:20:56;6.70;81.00
42965;DHT22;28604;51.204;22.552;2023-01-04T14:23:33;6.60;81.30
42965;DHT22;28604;51.204;22.552;2023-01-04T14:26:00;6.60;81.30
42965;DHT22;28604;51.204;22.552;2023-01-04T14:28:30;6.60;81.40
42965;DHT22;28604;51.204;22.552;2023-01-04T14:36:14;6.50;81.60
42965;DHT22;28604;51.204;22.552;2023-01-04T14:38:50;6.40;82.90
42965;DHT22;28604;51.204;22.552;2023-01-04T14:43:49;6.40;82.20
42965;DHT22;28604;51.204;22.552;2023-01-04T14:46:21;6.30;82.30
42965;DHT22;28604;51.204;22.552;2023-01-04T14:48:48;6.30;82.80
42965;DHT22;28604;51.204;22.552;2023-01-04T14:51:17;6.20;82.60
42965;DHT22;28604;51.204;22.552;2023-01-04T14:53:44;6.20;83.30
42965;DHT22;28604;51.204;22.552;2023-01-04T14:56:12;6.20;83.60
42965;DHT22;28604;51.204;22.552;2023-01-04T14:58:39;6.20;83.10
42965;DHT22;28604;51.204;22.552;2023-01-04T15:01:07;6.20;83.30
42965;DHT22;28604;51.204;22.552;2023-01-04T15:03:33;6.10;83.20
42965;DHT22;28604;51.204;22.552;2023-01-04T15:05:59;6.10;83.70
42965;DHT22;28604;51.204;22.552;2023-01-04T15:08:25;6.10;83.20
42965;DHT22;28604;51.204;22.552;2023-01-04T15:10:51;6.10;83.30
42965;DHT22;28604;51.204;22.552;2023-01-04T15:13:17;6.10;83.00
42965;DHT22;28604;51.204;22.552;2023-01-04T15:15:43;6.10;83.10
42965;DHT22;28604;51.204;22.552;2023-01-04T15:18:09;6.10;83.00
42965;DHT22;28604;51.204;22.552;2023-01-04T15:20:38;6.00;83.20
42965;DHT22;28604;51.204;22.552;2023-01-04T15:23:05;6.00;83.00
42965;DHT22;28604;51.204;22.552;2023-01-04T15:25:30;6.00;83.00
42965;DHT22;28604;51.204;22.552;2023-01-04T15:27:57;6.00;83.20
42965;DHT22;28604;51.204;22.552;2023-01-04T15:30:22;6.00;83.40
42965;DHT22;28604;51.204;22.552;2023-01-04T15:32:49;5.90;83.10
42965;DHT22;28604;51.204;22.552;2023-01-04T15:35:15;6.00;83.00
42965;DHT22;28604;51.204;22.552;2023-01-04T15:37:45;6.00;82.70
42965;DHT22;28604;51.204;22.552;2023-01-04T15:40:14;6.00;83.10
42965;DHT22;28604;51.204;22.552;2023-01-04T15:42:41;6.00;82.90
42965;DHT22;28604;51.204;22.552;2023-01-04T15:47:52;5.90;83.00
42965;DHT22;28604;51.204;22.552;2023-01-04T15:50:19;5.90;83.10
42965;DHT22;28604;51.204;22.552;2023-01-04T15:52:45;5.90;82.90
42965;DHT22;28604;51.204;22.552;2023-01-04T15:55:12;5.80;82.80
42965;DHT22;28604;51.204;22.552;2023-01-04T15:57:39;5.90;82.80
42965;DHT22;28604;51.204;22.552;2023-01-04T16:00:05;5.90;82.60
42965;DHT22;28604;51.204;22.552;2023-01-04T16:02:38;5.90;82.90
42965;DHT22;28604;51.204;22.552;2023-01-04T16:05:04;5.90;82.90
42965;DHT22;28604;51.204;22.552;2023-01-04T16:07:31;6.00;82.90
42965;DHT22;28604;51.204;22.552;2023-01-04T16:09:56;6.00;82.50
42965;DHT22;28604;51.204;22.552;2023-01-04T16:12:23;6.00;82.10
42965;DHT22;28604;51.204;22.552;2023-01-04T16:15:11;6.00;82.20
42965;DHT22;28604;51.204;22.552;2023-01-04T16:17:38;5.90;82.30
42965;DHT22;28604;51.204;22.552;2023-01-04T16:20:04;5.90;82.10
42965;DHT22;28604;51.204;22.552;2023-01-04T16:22:31;5.90;82.30
42965;DHT22;28604;51.204;22.552;2023-01-04T16:24:57;5.90;81.90
42965;DHT22;28604;51.204;22.552;2023-01-04T16:27:23;6.00;81.80
42965;DHT22;28604;51.204;22.552;2023-01-04T16:29:49;6.00;81.80
42965;DHT22;28604;51.204;22.552;2023-01-04T16:32:17;6.00;82.10
42965;DHT22;28604;51.204;22.552;2023-01-04T16:34:43;6.00;81.90
42965;DHT22;28604;51.204;22.552;2023-01-04T16:37:10;6.00;82.10
42965;DHT22;28604;51.204;22.552;2023-01-04T16:39:35;6.00;81.80
42965;DHT22;28604;51.204;22.552;2023-01-04T16:42:02;6.00;82.10
42965;DHT22;28604;51.204;22.552;2023-01-04T16:44:27;6.00;82.10
42965;DHT22;28604;51.204;22.552;2023-01-04T16:46:53;6.10;82.10
42965;DHT22;28604;51.204;22.552;2023-01-04T16:49:19;6.00;82.00
42965;DHT22;28604;51.204;22.552;2023-01-04T16:51:46;6.10;81.70
42965;DHT22;28604;51.204;22.552;2023-01-04T16:54:13;6.10;81.80
42965;DHT22;28604;51.204;22.552;2023-01-04T16:56:41;6.10;81.90
42965;DHT22;28604;51.204;22.552;2023-01-04T16:59:10;6.20;81.70
42965;DHT22;28604;51.204;22.552;2023-01-04T17:01:37;6.10;81.70
42965;DHT22;28604;51.204;22.552;2023-01-04T17:04:05;6.20;81.90
42965;DHT22;28604;51.204;22.552;2023-01-04T17:06:39;6.20;81.80
42965;DHT22;28604;51.204;22.552;2023-01-04T17:09:07;6.20;81.70
42965;DHT22;28604;51.204;22.552;2023-01-04T17:11:35;6.20;82.10
42965;DHT22;28604;51.204;22.552;2023-01-04T17:14:03;6.20;82.20
42965;DHT22;28604;51.204;22.552;2023-01-04T17:16:30;6.20;82.00
42965;DHT22;28604;51.204;22.552;2023-01-04T17:18:56;6.30;82.00
42965;DHT22;28604;51.204;22.552;2023-01-04T17:21:24;6.20;82.00
42965;DHT22;28604;51.204;22.552;2023-01-04T17:23:53;6.30;81.80
42965;DHT22;28604;51.204;22.552;2023-01-04T17:26:24;6.30;82.00
42965;DHT22;28604;51.204;22.552;2023-01-04T17:28:53;6.30;82.00
42965;DHT22;28604;51.204;22.552;2023-01-04T17:31:21;6.30;82.00
42965;DHT22;28604;51.204;22.552;2023-01-04T17:33:48;6.30;82.20
42965;DHT22;28604;51.204;22.552;2023-01-04T17:36:16;6.30;82.30
42965;DHT22;28604;51.204;22.552;2023-01-04T17:38:43;6.30;82.60
42965;DHT22;28604;51.204;22.552;2023-01-04T17:43:39;6.40;83.10